This is the latest recevied weather packets stored in our database for station/object EB5AGF-13. If no packets are shown the sender has not sent any weather packets the latest 10 day(s).
| Time | Temp. | Humidity | Pressure | Rain* | Wind** | Luminosity | Snow |
|---|---|---|---|---|---|---|---|
| 1777620060 | 18.89° C | 85% | 1016.6 hPa | 0 mm | 0 m/s | 39 W/m² | - |
| 1777619756 | 18.89° C | 85% | 1016.6 hPa | 0 mm | 0 m/s | 35 W/m² | - |
| 1777619454 | 18.89° C | 84% | 1016.6 hPa | 0 mm | 0.45 m/s, 342° | 35 W/m² | - |
| 1777619149 | 18.89° C | 84% | 1016.4 hPa | 0 mm | 1.34 m/s, 299° | 48 W/m² | - |
| 1777618844 | 18.89° C | 84% | 1016.4 hPa | 0 mm | 0.45 m/s, 265° | 55 W/m² | - |
| 1777618540 | 18.89° C | 85% | 1016.5 hPa | 0 mm | 0 m/s | 47 W/m² | - |
| 1777618233 | 18.89° C | 86% | 1016.4 hPa | 0 mm | 0 m/s | 56 W/m² | - |
| 1777617932 | 18.89° C | 86% | 1016.3 hPa | 0 mm | 0 m/s | 71 W/m² | - |
| 1777617628 | 18.89° C | 87% | 1016.2 hPa | 0 mm | 0 m/s | 70 W/m² | - |
| 1777617325 | 18.33° C | 87% | 1016.3 hPa | 0 mm | 0 m/s | 69 W/m² | - |
| 1777617021 | 18.33° C | 87% | 1016 hPa | 0 mm | 0 m/s | 36 W/m² | - |
| 1777593629 | 18.33° C | 86% | 1014.3 hPa | 0 mm | 0 m/s | 0 W/m² | - |
| 1777593326 | 18.33° C | 86% | 1014.3 hPa | 0 mm | 0 m/s | 0 W/m² | - |
| 1777593021 | 18.33° C | 86% | 1014.3 hPa | 0 mm | 0 m/s | 0 W/m² | - |
| 1777592717 | 18.33° C | 85% | 1014.4 hPa | 0 mm | 0 m/s | 0 W/m² | - |
| 1777592413 | 18.33° C | 85% | 1014.4 hPa | 0 mm | 0.45 m/s, 27° | 0 W/m² | - |
| 1777592093 | 18.33° C | 85% | 1014.6 hPa | 0 mm | 0 m/s | 0 W/m² | - |
| 1777591790 | 18.33° C | 85% | 1014.4 hPa | 0 mm | 0 m/s | 0 W/m² | - |
| 1777591485 | 18.33° C | 85% | 1014.4 hPa | 0 mm | 0 m/s | 0 W/m² | - |
| 1777591181 | 18.33° C | 84% | 1014.6 hPa | 0 mm | 0 m/s | 0 W/m² | - |
| 1777590877 | 18.33° C | 84% | 1014.5 hPa | 0 mm | 0 m/s | 0 W/m² | - |
| 1777590572 | 18.33° C | 84% | 1014.4 hPa | 0 mm | 0.45 m/s, 45° | 0 W/m² | - |
| 1777590269 | 18.33° C | 85% | 1014.7 hPa | 0 mm | 0 m/s | 0 W/m² | - |
| 1777589966 | 18.33° C | 85% | 1014.7 hPa | 0 mm | 0 m/s | 0 W/m² | - |
| 1777589661 | 18.33° C | 85% | 1014.5 hPa | 0 mm | 0 m/s | 0 W/m² | - |
* Rain latest hour (hover to see other rain measurements)
** Current wind speed in m/s (hover to see current wind gust speed)